sensor_id;sensor_type;location;lat;lon;timestamp;pressure;altitude;pressure_sealevel;temperature;humidity
61474;BME280;53694;49.784;30.150;2022-08-03T00:00:26;99285.83;;;21.48;72.16
61474;BME280;53694;49.784;30.150;2022-08-03T00:01:28;99292.20;;;21.19;73.40
61474;BME280;53694;49.784;30.150;2022-08-03T00:02:30;99290.36;;;21.00;74.43
61474;BME280;53694;49.784;30.150;2022-08-03T00:03:32;99284.77;;;21.00;74.91
61474;BME280;53694;49.784;30.150;2022-08-03T00:04:34;99287.16;;;21.14;75.07
61474;BME280;53694;49.784;30.150;2022-08-03T00:05:35;99292.85;;;21.39;74.58
61474;BME280;53694;49.784;30.150;2022-08-03T00:06:39;99291.92;;;21.71;73.28
61474;BME280;53694;49.784;30.150;2022-08-03T00:07:41;99284.89;;;22.05;72.14
61474;BME280;53694;49.784;30.150;2022-08-03T00:08:42;99285.43;;;22.38;70.98
61474;BME280;53694;49.784;30.150;2022-08-03T00:09:44;99287.16;;;22.70;69.72
61474;BME280;53694;49.784;30.150;2022-08-03T00:10:46;99286.33;;;22.95;67.79
61474;BME280;53694;49.784;30.150;2022-08-03T00:11:47;99286.02;;;23.15;67.32
61474;BME280;53694;49.784;30.150;2022-08-03T00:12:49;99288.76;;;23.28;66.87
61474;BME280;53694;49.784;30.150;2022-08-03T00:13:51;99292.78;;;23.27;66.61
61474;BME280;53694;49.784;30.150;2022-08-03T00:14:53;99285.02;;;23.09;66.92
61474;BME280;53694;49.784;30.150;2022-08-03T00:15:54;99285.22;;;22.80;67.46
61474;BME280;53694;49.784;30.150;2022-08-03T00:16:57;99280.18;;;22.40;68.78
61474;BME280;53694;49.784;30.150;2022-08-03T00:17:58;99293.28;;;22.05;70.00
61474;BME280;53694;49.784;30.150;2022-08-03T00:19:00;99284.31;;;21.72;71.08
61474;BME280;53694;49.784;30.150;2022-08-03T00:20:02;99282.13;;;21.09;74.04
61474;BME280;53694;49.784;30.150;2022-08-03T00:21:04;99282.13;;;21.09;74.04
61474;BME280;53694;49.784;30.150;2022-08-03T00:22:06;99281.39;;;20.92;75.16
61474;BME280;53694;49.784;30.150;2022-08-03T00:23:08;99282.16;;;20.92;75.50
61474;BME280;53694;49.784;30.150;2022-08-03T00:24:09;99285.79;;;21.06;75.25
61474;BME280;53694;49.784;30.150;2022-08-03T00:25:11;99278.40;;;21.28;74.84
61474;BME280;53694;49.784;30.150;2022-08-03T00:26:13;99283.16;;;21.57;74.00
61474;BME280;53694;49.784;30.150;2022-08-03T00:27:15;99279.52;;;21.85;72.93
61474;BME280;53694;49.784;30.150;2022-08-03T00:28:16;99277.41;;;22.15;71.90
61474;BME280;53694;49.784;30.150;2022-08-03T00:29:18;99283.64;;;22.44;70.92
61474;BME280;53694;49.784;30.150;2022-08-03T00:30:20;99277.87;;;22.74;69.19
61474;BME280;53694;49.784;30.150;2022-08-03T00:31:22;99269.84;;;22.98;68.42
61474;BME280;53694;49.784;30.150;2022-08-03T00:32:24;99283.06;;;23.19;67.26
61474;BME280;53694;49.784;30.150;2022-08-03T00:33:25;99283.16;;;23.28;66.34
61474;BME280;53694;49.784;30.150;2022-08-03T00:34:27;99286.21;;;23.21;66.70
61474;BME280;53694;49.784;30.150;2022-08-03T00:35:29;99272.52;;;23.01;66.47
61474;BME280;53694;49.784;30.150;2022-08-03T00:36:31;99287.16;;;22.70;67.47
61474;BME280;53694;49.784;30.150;2022-08-03T00:37:33;99281.07;;;22.37;68.51
61474;BME280;53694;49.784;30.150;2022-08-03T00:38:34;99281.31;;;22.05;69.46
61474;BME280;53694;49.784;30.150;2022-08-03T00:39:36;99293.58;;;21.69;70.80
61474;BME280;53694;49.784;30.150;2022-08-03T00:40:38;99288.50;;;21.38;71.96
61474;BME280;53694;49.784;30.150;2022-08-03T00:41:40;99292.41;;;21.12;73.29
61474;BME280;53694;49.784;30.150;2022-08-03T00:43:56;99287.06;;;20.88;75.00
61474;BME280;53694;49.784;30.150;2022-08-03T00:44:58;99294.16;;;21.06;75.15
61474;BME280;53694;49.784;30.150;2022-08-03T00:46:00;99293.05;;;21.32;74.38
61474;BME280;53694;49.784;30.150;2022-08-03T00:47:01;99289.53;;;21.57;73.04
61474;BME280;53694;49.784;30.150;2022-08-03T00:48:04;99289.91;;;21.85;72.21
61474;BME280;53694;49.784;30.150;2022-08-03T00:49:06;99285.02;;;22.14;71.23
61474;BME280;53694;49.784;30.150;2022-08-03T00:50:09;99292.03;;;22.44;69.91
61474;BME280;53694;49.784;30.150;2022-08-03T00:51:11;99285.14;;;22.71;68.84
61474;BME280;53694;49.784;30.150;2022-08-03T00:52:14;99296.75;;;22.95;67.63
61474;BME280;53694;49.784;30.150;2022-08-03T00:53:16;99289.53;;;23.07;66.91
61474;BME280;53694;49.784;30.150;2022-08-03T00:54:19;99288.53;;;23.01;66.89
61474;BME280;53694;49.784;30.150;2022-08-03T00:55:21;99295.05;;;22.85;67.36
61474;BME280;53694;49.784;30.150;2022-08-03T00:56:23;99296.37;;;22.58;68.04
61474;BME280;53694;49.784;30.150;2022-08-03T00:57:25;99303.03;;;22.26;68.84
61474;BME280;53694;49.784;30.150;2022-08-03T00:58:27;99297.64;;;21.93;69.78
61474;BME280;53694;49.784;30.150;2022-08-03T00:59:29;99298.59;;;21.61;70.94
61474;BME280;53694;49.784;30.150;2022-08-03T01:00:37;99292.27;;;21.32;72.10
61474;BME280;53694;49.784;30.150;2022-08-03T01:01:36;99288.25;;;21.04;73.38
61474;BME280;53694;49.784;30.150;2022-08-03T01:02:39;99289.52;;;20.86;74.28
61474;BME280;53694;49.784;30.150;2022-08-03T01:03:41;99287.51;;;20.87;74.81
61474;BME280;53694;49.784;30.150;2022-08-03T01:04:42;99291.47;;;21.02;74.93
61474;BME280;53694;49.784;30.150;2022-08-03T01:06:03;99297.95;;;21.28;74.37
61474;BME280;53694;49.784;30.150;2022-08-03T01:07:14;99306.75;;;21.56;72.85
61474;BME280;53694;49.784;30.150;2022-08-03T01:08:23;99293.81;;;21.87;71.90
61474;BME280;53694;49.784;30.150;2022-08-03T01:14:16;99299.22;;;23.15;66.52
61474;BME280;53694;49.784;30.150;2022-08-03T01:15:37;99304.63;;;23.09;66.51
61474;BME280;53694;49.784;30.150;2022-08-03T01:16:51;99309.86;;;22.85;67.18
61474;BME280;53694;49.784;30.150;2022-08-03T01:17:56;99305.91;;;22.48;68.26
61474;BME280;53694;49.784;30.150;2022-08-03T01:19:20;99306.80;;;22.07;69.14
61474;BME280;53694;49.784;30.150;2022-08-03T01:20:17;99301.51;;;21.70;70.51
61474;BME280;53694;49.784;30.150;2022-08-03T01:21:26;99304.73;;;21.27;72.22
61474;BME280;53694;49.784;30.150;2022-08-03T01:24:05;99306.08;;;20.77;74.92
61474;BME280;53694;49.784;30.150;2022-08-03T01:25:39;99310.70;;;20.84;75.36
61474;BME280;53694;49.784;30.150;2022-08-03T01:26:47;99309.41;;;21.17;74.44
61474;BME280;53694;49.784;30.150;2022-08-03T01:30:24;99307.71;;;22.29;70.56
61474;BME280;53694;49.784;30.150;2022-08-03T01:31:31;99309.55;;;22.70;68.61
61474;BME280;53694;49.784;30.150;2022-08-03T01:33:02;99298.65;;;22.98;67.45
61474;BME280;53694;49.784;30.150;2022-08-03T01:34:04;99291.81;;;23.21;66.53
61474;BME280;53694;49.784;30.150;2022-08-03T01:35:12;99300.28;;;23.30;65.63
61474;BME280;53694;49.784;30.150;2022-08-03T01:36:24;99292.72;;;23.18;65.54
61474;BME280;53694;49.784;30.150;2022-08-03T01:37:34;99302.67;;;22.84;66.16
61474;BME280;53694;49.784;30.150;2022-08-03T01:38:33;99293.82;;;22.38;67.81
61474;BME280;53694;49.784;30.150;2022-08-03T01:39:36;99303.02;;;22.01;69.35
61474;BME280;53694;49.784;30.150;2022-08-03T01:40:41;99305.31;;;21.64;70.40
61474;BME280;53694;49.784;30.150;2022-08-03T01:41:58;99303.86;;;21.30;71.82
61474;BME280;53694;49.784;30.150;2022-08-03T01:42:55;99302.06;;;20.94;73.34
61474;BME280;53694;49.784;30.150;2022-08-03T01:44:00;99305.75;;;20.75;74.74
61474;BME280;53694;49.784;30.150;2022-08-03T01:45:04;99297.38;;;20.75;75.07
61474;BME280;53694;49.784;30.150;2022-08-03T01:46:08;99307.64;;;20.94;74.85
61474;BME280;53694;49.784;30.150;2022-08-03T01:47:11;99305.97;;;21.26;74.09
61474;BME280;53694;49.784;30.150;2022-08-03T01:48:15;99308.67;;;21.59;73.01
61474;BME280;53694;49.784;30.150;2022-08-03T01:49:17;99316.08;;;21.91;71.94
61474;BME280;53694;49.784;30.150;2022-08-03T01:50:24;99307.50;;;22.24;70.71
61474;BME280;53694;49.784;30.150;2022-08-03T01:51:28;99303.00;;;22.52;69.54
61474;BME280;53694;49.784;30.150;2022-08-03T01:52:31;99306.29;;;22.72;68.05
61474;BME280;53694;49.784;30.150;2022-08-03T01:53:36;99306.51;;;22.90;67.61
61474;BME280;53694;49.784;30.150;2022-08-03T01:54:43;99310.28;;;22.97;67.43
61474;BME280;53694;49.784;30.150;2022-08-03T01:55:47;99311.33;;;22.90;67.41
61474;BME280;53694;49.784;30.150;2022-08-03T01:56:51;99311.23;;;22.68;67.75
61474;BME280;53694;49.784;30.150;2022-08-03T01:57:54;99301.00;;;22.39;68.66
61474;BME280;53694;49.784;30.150;2022-08-03T01:58:57;99305.25;;;22.06;69.39
61474;BME280;53694;49.784;30.150;2022-08-03T02:00:02;99310.25;;;21.73;70.62
61474;BME280;53694;49.784;30.150;2022-08-03T02:01:04;99304.02;;;21.39;71.84
61474;BME280;53694;49.784;30.150;2022-08-03T02:02:08;99305.69;;;21.08;73.29
61474;BME280;53694;49.784;30.150;2022-08-03T02:03:12;99304.16;;;20.90;74.52
61474;BME280;53694;49.784;30.150;2022-08-03T02:04:19;99306.95;;;20.90;74.91
61474;BME280;53694;49.784;30.150;2022-08-03T02:05:22;99302.90;;;21.08;74.80
61474;BME280;53694;49.784;30.150;2022-08-03T02:06:26;99302.11;;;21.36;73.87
61474;BME280;53694;49.784;30.150;2022-08-03T02:07:28;99301.64;;;21.67;72.66
61474;BME280;53694;49.784;30.150;2022-08-03T02:08:32;99302.77;;;21.95;71.68
61474;BME280;53694;49.784;30.150;2022-08-03T02:09:36;99296.11;;;22.18;70.46
61474;BME280;53694;49.784;30.150;2022-08-03T02:10:40;99302.45;;;22.44;70.15
61474;BME280;53694;49.784;30.150;2022-08-03T02:11:43;99304.07;;;22.67;68.72
61474;BME280;53694;49.784;30.150;2022-08-03T02:12:48;99302.09;;;22.89;68.17
61474;BME280;53694;49.784;30.150;2022-08-03T02:13:50;99302.61;;;23.10;67.47
61474;BME280;53694;49.784;30.150;2022-08-03T02:14:53;99306.28;;;23.19;66.92
61474;BME280;53694;49.784;30.150;2022-08-03T02:15:56;99305.09;;;23.08;66.28
61474;BME280;53694;49.784;30.150;2022-08-03T02:16:59;99311.66;;;22.79;67.25
61474;BME280;53694;49.784;30.150;2022-08-03T02:18:04;99299.19;;;22.45;68.56
61474;BME280;53694;49.784;30.150;2022-08-03T02:19:06;99306.23;;;22.12;69.68
61474;BME280;53694;49.784;30.150;2022-08-03T02:20:11;99307.67;;;21.78;70.96
61474;BME280;53694;49.784;30.150;2022-08-03T02:21:14;99308.19;;;21.48;71.91
61474;BME280;53694;49.784;30.150;2022-08-03T02:22:16;99303.13;;;21.13;73.15
61474;BME280;53694;49.784;30.150;2022-08-03T02:23:18;99296.48;;;20.94;74.55
61474;BME280;53694;49.784;30.150;2022-08-03T02:24:20;99298.04;;;20.95;75.20
61474;BME280;53694;49.784;30.150;2022-08-03T02:25:22;99296.67;;;21.16;74.98
61474;BME280;53694;49.784;30.150;2022-08-03T02:26:27;99296.33;;;21.43;74.14
61474;BME280;53694;49.784;30.150;2022-08-03T02:27:31;99294.26;;;21.73;72.95
61474;BME280;53694;49.784;30.150;2022-08-03T02:28:36;99291.59;;;22.08;71.79
61474;BME280;53694;49.784;30.150;2022-08-03T02:29:40;99295.06;;;22.37;70.65
61474;BME280;53694;49.784;30.150;2022-08-03T02:30:45;99299.13;;;22.71;69.30
61474;BME280;53694;49.784;30.150;2022-08-03T02:31:49;99296.75;;;22.95;67.97
61474;BME280;53694;49.784;30.150;2022-08-03T02:32:54;99293.62;;;23.15;67.11
61474;BME280;53694;49.784;30.150;2022-08-03T02:33:59;99297.29;;;23.25;66.72
61474;BME280;53694;49.784;30.150;2022-08-03T02:35:03;99298.31;;;23.18;66.70
61474;BME280;53694;49.784;30.150;2022-08-03T02:36:06;99296.62;;;22.99;67.05
61474;BME280;53694;49.784;30.150;2022-08-03T02:37:10;99302.39;;;22.69;67.66
61474;BME280;53694;49.784;30.150;2022-08-03T02:38:14;99301.44;;;22.38;68.80
61474;BME280;53694;49.784;30.150;2022-08-03T02:39:19;99298.09;;;22.05;69.89
61474;BME280;53694;49.784;30.150;2022-08-03T02:40:24;99295.49;;;21.72;71.17
61474;BME280;53694;49.784;30.150;2022-08-03T02:41:34;99300.00;;;21.40;72.24
61474;BME280;53694;49.784;30.150;2022-08-03T02:42:35;99288.48;;;21.09;73.61
61474;BME280;53694;49.784;30.150;2022-08-03T02:43:39;99287.84;;;20.89;74.55
61474;BME280;53694;49.784;30.150;2022-08-03T02:44:43;99290.20;;;20.90;74.79
61474;BME280;53694;49.784;30.150;2022-08-03T02:45:48;99291.73;;;21.08;74.83
61474;BME280;53694;49.784;30.150;2022-08-03T02:46:53;99297.66;;;21.39;74.13
61474;BME280;53694;49.784;30.150;2022-08-03T02:47:58;99295.14;;;21.70;72.69
61474;BME280;53694;49.784;30.150;2022-08-03T02:49:01;99294.17;;;22.02;71.41
61474;BME280;53694;49.784;30.150;2022-08-03T02:50:05;99300.45;;;22.32;70.61
61474;BME280;53694;49.784;30.150;2022-08-03T02:51:09;99303.09;;;22.61;69.41
61474;BME280;53694;49.784;30.150;2022-08-03T02:52:11;99301.78;;;22.87;68.72
61474;BME280;53694;49.784;30.150;2022-08-03T02:53:15;99303.85;;;23.09;67.57
61474;BME280;53694;49.784;30.150;2022-08-03T02:54:19;99303.02;;;23.21;66.75
61474;BME280;53694;49.784;30.150;2022-08-03T02:55:23;99307.63;;;23.15;66.63
61474;BME280;53694;49.784;30.150;2022-08-03T02:56:27;99302.78;;;22.93;66.92
61474;BME280;53694;49.784;30.150;2022-08-03T02:57:30;99303.41;;;22.63;67.68
61474;BME280;53694;49.784;30.150;2022-08-03T02:58:35;99296.98;;;22.28;68.76
61474;BME280;53694;49.784;30.150;2022-08-03T02:59:38;99304.46;;;21.92;70.12
61474;BME280;53694;49.784;30.150;2022-08-03T03:00:43;99301.06;;;21.59;71.38
61474;BME280;53694;49.784;30.150;2022-08-03T03:01:46;99306.33;;;21.28;72.69
61474;BME280;53694;49.784;30.150;2022-08-03T03:02:48;99302.54;;;21.06;73.93
61474;BME280;53694;49.784;30.150;2022-08-03T03:03:51;99299.42;;;21.04;74.30
61474;BME280;53694;49.784;30.150;2022-08-03T03:04:54;99301.35;;;21.19;74.25
61474;BME280;53694;49.784;30.150;2022-08-03T03:05:57;99307.73;;;21.49;73.47
61474;BME280;53694;49.784;30.150;2022-08-03T03:06:59;99314.85;;;21.79;72.45
61474;BME280;53694;49.784;30.150;2022-08-03T03:08:01;99305.14;;;22.09;71.44
61474;BME280;53694;49.784;30.150;2022-08-03T03:09:03;99301.00;;;22.39;70.33
61474;BME280;53694;49.784;30.150;2022-08-03T03:10:08;99309.67;;;22.67;69.08
61474;BME280;53694;49.784;30.150;2022-08-03T03:11:10;99297.64;;;22.92;68.57
61474;BME280;53694;49.784;30.150;2022-08-03T03:12:14;99309.20;;;23.16;67.18
61474;BME280;53694;49.784;30.150;2022-08-03T03:13:18;99320.48;;;23.25;66.98
61474;BME280;53694;49.784;30.150;2022-08-03T03:14:20;99316.25;;;23.20;66.31
61474;BME280;53694;49.784;30.150;2022-08-03T03:15:23;99322.14;;;23.01;66.80
61474;BME280;53694;49.784;30.150;2022-08-03T03:16:27;99319.85;;;22.74;67.73
61474;BME280;53694;49.784;30.150;2022-08-03T03:17:30;99320.91;;;22.41;68.74
61474;BME280;53694;49.784;30.150;2022-08-03T03:18:34;99318.31;;;22.09;69.93
61474;BME280;53694;49.784;30.150;2022-08-03T03:19:38;99317.30;;;21.77;70.94
61474;BME280;53694;49.784;30.150;2022-08-03T03:20:40;99315.42;;;21.45;72.24
61474;BME280;53694;49.784;30.150;2022-08-03T03:21:43;99319.02;;;21.16;73.50
61474;BME280;53694;49.784;30.150;2022-08-03T03:22:47;99311.12;;;20.99;74.72
61474;BME280;53694;49.784;30.150;2022-08-03T03:23:52;99312.23;;;21.01;74.99
61474;BME280;53694;49.784;30.150;2022-08-03T03:24:54;99316.45;;;21.22;74.71
61474;BME280;53694;49.784;30.150;2022-08-03T03:25:56;99323.70;;;21.49;73.93
61474;BME280;53694;49.784;30.150;2022-08-03T03:26:59;99327.59;;;21.80;72.73
61474;BME280;53694;49.784;30.150;2022-08-03T03:28:01;99321.11;;;22.09;71.46
61474;BME280;53694;49.784;30.150;2022-08-03T03:29:03;99314.64;;;22.37;70.43
61474;BME280;53694;49.784;30.150;2022-08-03T03:30:06;99314.95;;;22.65;69.51
61474;BME280;53694;49.784;30.150;2022-08-03T03:31:08;99320.91;;;22.89;68.51
61474;BME280;53694;49.784;30.150;2022-08-03T03:32:10;99315.40;;;23.11;67.85
61474;BME280;53694;49.784;30.150;2022-08-03T03:33:14;99316.25;;;23.20;67.13
61474;BME280;53694;49.784;30.150;2022-08-03T03:34:17;99318.83;;;23.15;66.67
61474;BME280;53694;49.784;30.150;2022-08-03T03:35:19;99322.37;;;22.93;67.00
61474;BME280;53694;49.784;30.150;2022-08-03T03:36:23;99325.02;;;22.62;68.01
61474;BME280;53694;49.784;30.150;2022-08-03T03:37:28;99334.12;;;22.28;69.13
61474;BME280;53694;49.784;30.150;2022-08-03T03:38:31;99335.89;;;21.96;70.04
61474;BME280;53694;49.784;30.150;2022-08-03T03:39:33;99329.69;;;21.63;71.53
61474;BME280;53694;49.784;30.150;2022-08-03T03:40:35;99330.04;;;21.36;72.87
61474;BME280;53694;49.784;30.150;2022-08-03T03:41:38;99328.62;;;21.15;73.65
61474;BME280;53694;49.784;30.150;2022-08-03T03:42:40;99325.92;;;21.12;74.34
61474;BME280;53694;49.784;30.150;2022-08-03T03:43:42;99330.66;;;21.28;74.23
61474;BME280;53694;49.784;30.150;2022-08-03T03:44:44;99331.57;;;21.54;73.50
61474;BME280;53694;49.784;30.150;2022-08-03T03:45:46;99326.68;;;21.83;72.70
61474;BME280;53694;49.784;30.150;2022-08-03T03:46:49;99332.56;;;22.14;71.39
61474;BME280;53694;49.784;30.150;2022-08-03T03:47:51;99336.45;;;22.42;70.07
61474;BME280;53694;49.784;30.150;2022-08-03T03:48:53;99330.81;;;22.68;69.19
61474;BME280;53694;49.784;30.150;2022-08-03T03:49:56;99341.44;;;22.86;67.80
61474;BME280;53694;49.784;30.150;2022-08-03T03:50:59;99336.14;;;23.01;68.01
61474;BME280;53694;49.784;30.150;2022-08-03T03:52:01;99349.78;;;23.11;67.73
61474;BME280;53694;49.784;30.150;2022-08-03T03:53:03;99343.95;;;23.06;66.96
61474;BME280;53694;49.784;30.150;2022-08-03T03:54:05;99346.69;;;22.84;67.40
61474;BME280;53694;49.784;30.150;2022-08-03T03:55:07;99342.84;;;22.56;68.33
61474;BME280;53694;49.784;30.150;2022-08-03T03:56:09;99345.87;;;22.23;69.41
61474;BME280;53694;49.784;30.150;2022-08-03T03:57:11;99350.85;;;21.90;70.50
61474;BME280;53694;49.784;30.150;2022-08-03T03:58:13;99344.98;;;21.59;71.63
61474;BME280;53694;49.784;30.150;2022-08-03T03:59:15;99352.12;;;21.31;72.77
61474;BME280;53694;49.784;30.150;2022-08-03T04:00:17;99347.02;;;21.13;73.80
61474;BME280;53694;49.784;30.150;2022-08-03T04:01:19;99351.05;;;21.12;74.48
61474;BME280;53694;49.784;30.150;2022-08-03T04:02:21;99349.33;;;21.31;74.29
61474;BME280;53694;49.784;30.150;2022-08-03T04:03:23;99350.58;;;21.59;73.54
61474;BME280;53694;49.784;30.150;2022-08-03T04:04:25;99357.22;;;21.90;72.56
61474;BME280;53694;49.784;30.150;2022-08-03T04:05:26;99356.29;;;22.23;71.32
61474;BME280;53694;49.784;30.150;2022-08-03T04:06:28;99352.23;;;22.49;70.01
61474;BME280;53694;49.784;30.150;2022-08-03T04:07:34;99354.34;;;22.70;69.20
61474;BME280;53694;49.784;30.150;2022-08-03T04:08:35;99361.58;;;22.93;68.36
61474;BME280;53694;49.784;30.150;2022-08-03T04:09:38;99360.28;;;23.20;67.42
61474;BME280;53694;49.784;30.150;2022-08-03T04:10:44;99363.81;;;23.33;66.79
61474;BME280;53694;49.784;30.150;2022-08-03T04:11:53;99363.16;;;23.29;66.21
61474;BME280;53694;49.784;30.150;2022-08-03T04:12:56;99366.25;;;23.09;66.80
61474;BME280;53694;49.784;30.150;2022-08-03T04:14:08;99362.16;;;22.76;67.73
61474;BME280;53694;49.784;30.150;2022-08-03T04:15:11;99362.55;;;22.39;68.56
61474;BME280;53694;49.784;30.150;2022-08-03T04:16:15;99361.37;;;21.99;69.99
61474;BME280;53694;49.784;30.150;2022-08-03T04:17:18;99360.75;;;21.65;71.29
61474;BME280;53694;49.784;30.150;2022-08-03T04:18:22;99359.20;;;21.35;72.64
61474;BME280;53694;49.784;30.150;2022-08-03T04:19:35;99359.06;;;21.10;74.02
61474;BME280;53694;49.784;30.150;2022-08-03T04:20:37;99360.31;;;20.92;75.04
61474;BME280;53694;49.784;30.150;2022-08-03T04:21:43;99359.00;;;20.97;75.31
61474;BME280;53694;49.784;30.150;2022-08-03T04:22:48;99353.98;;;21.21;75.02
61474;BME280;53694;49.784;30.150;2022-08-03T04:23:54;99359.51;;;21.54;73.55
61474;BME280;53694;49.784;30.150;2022-08-03T04:25:02;99352.97;;;21.86;72.41
61474;BME280;53694;49.784;30.150;2022-08-03T04:26:08;99347.33;;;22.15;71.12
61474;BME280;53694;49.784;30.150;2022-08-03T04:27:11;99353.59;;;22.44;69.97
61474;BME280;53694;49.784;30.150;2022-08-03T04:28:14;99345.48;;;22.72;68.97
61474;BME280;53694;49.784;30.150;2022-08-03T04:29:17;99357.45;;;22.98;67.95
61474;BME280;53694;49.784;30.150;2022-08-03T04:30:22;99352.13;;;23.13;67.10
61474;BME280;53694;49.784;30.150;2022-08-03T04:31:25;99360.21;;;23.11;66.94
61474;BME280;53694;49.784;30.150;2022-08-03T04:32:28;99356.79;;;22.94;66.98
61474;BME280;53694;49.784;30.150;2022-08-03T04:33:33;99361.61;;;22.68;67.73
61474;BME280;53694;49.784;30.150;2022-08-03T04:34:36;99352.25;;;22.36;68.73
61474;BME280;53694;49.784;30.150;2022-08-03T04:35:37;99359.94;;;22.07;69.55
61474;BME280;53694;49.784;30.150;2022-08-03T04:36:46;99358.89;;;21.75;70.44
61474;BME280;53694;49.784;30.150;2022-08-03T04:37:50;99364.60;;;21.42;71.43
61474;BME280;53694;49.784;30.150;2022-08-03T04:40:07;99364.34;;;20.91;74.43
61474;BME280;53694;49.784;30.150;2022-08-03T04:41:09;99350.20;;;20.99;75.06
61474;BME280;53694;49.784;30.150;2022-08-03T04:42:13;99357.11;;;21.23;74.42
61474;BME280;53694;49.784;30.150;2022-08-03T04:43:15;99356.72;;;21.54;73.12
61474;BME280;53694;49.784;30.150;2022-08-03T04:44:20;99361.25;;;21.89;72.22
61474;BME280;53694;49.784;30.150;2022-08-03T04:45:24;99365.45;;;22.23;70.85
61474;BME280;53694;49.784;30.150;2022-08-03T04:46:28;99365.86;;;22.85;68.82
61474;BME280;53694;49.784;30.150;2022-08-03T04:47:34;99365.86;;;22.85;68.82
61474;BME280;53694;49.784;30.150;2022-08-03T04:48:36;99372.19;;;23.11;67.45
61474;BME280;53694;49.784;30.150;2022-08-03T04:49:39;99373.36;;;23.23;66.83
61474;BME280;53694;49.784;30.150;2022-08-03T04:50:41;99369.59;;;23.17;66.39
61474;BME280;53694;49.784;30.150;2022-08-03T04:51:44;99368.66;;;22.98;66.79
61474;BME280;53694;49.784;30.150;2022-08-03T04:52:47;99367.87;;;22.72;67.53
61474;BME280;53694;49.784;30.150;2022-08-03T04:53:49;99377.98;;;22.44;68.35
61474;BME280;53694;49.784;30.150;2022-08-03T04:54:50;99383.33;;;22.13;69.35
61474;BME280;53694;49.784;30.150;2022-08-03T04:55:52;99371.41;;;21.83;70.68
61474;BME280;53694;49.784;30.150;2022-08-03T04:56:54;99376.66;;;21.23;72.77
61474;BME280;53694;49.784;30.150;2022-08-03T04:57:56;99376.66;;;21.23;72.77
61474;BME280;53694;49.784;30.150;2022-08-03T04:58:59;99369.54;;;21.06;73.94
61474;BME280;53694;49.784;30.150;2022-08-03T05:00:01;99372.69;;;21.08;74.38
61474;BME280;53694;49.784;30.150;2022-08-03T05:01:04;99380.50;;;21.29;74.44
61474;BME280;53694;49.784;30.150;2022-08-03T05:02:05;99373.70;;;21.59;73.64
61474;BME280;53694;49.784;30.150;2022-08-03T05:03:07;99379.94;;;21.92;71.91
61474;BME280;53694;49.784;30.150;2022-08-03T05:04:09;99385.25;;;22.29;70.99
61474;BME280;53694;49.784;30.150;2022-08-03T05:05:11;99383.33;;;22.64;69.83
61474;BME280;53694;49.784;30.150;2022-08-03T05:06:14;99379.97;;;22.94;68.45
61474;BME280;53694;49.784;30.150;2022-08-03T05:07:16;99378.19;;;23.23;67.57
61474;BME280;53694;49.784;30.150;2022-08-03T05:08:18;99382.25;;;23.43;66.61
61474;BME280;53694;49.784;30.150;2022-08-03T05:09:20;99381.00;;;23.44;66.07
61474;BME280;53694;49.784;30.150;2022-08-03T05:10:22;99384.79;;;23.29;66.21
61474;BME280;53694;49.784;30.150;2022-08-03T05:11:24;99384.41;;;23.05;66.95
61474;BME280;53694;49.784;30.150;2022-08-03T05:12:25;99387.81;;;22.74;67.33
61474;BME280;53694;49.784;30.150;2022-08-03T05:13:27;99385.82;;;22.36;68.38
61474;BME280;53694;49.784;30.150;2022-08-03T05:14:29;99389.34;;;21.99;69.99
61474;BME280;53694;49.784;30.150;2022-08-03T05:15:30;99389.38;;;21.69;71.27
61474;BME280;53694;49.784;30.150;2022-08-03T05:16:33;99383.92;;;21.37;72.69
61474;BME280;53694;49.784;30.150;2022-08-03T05:17:35;99384.10;;;21.13;74.42
61474;BME280;53694;49.784;30.150;2022-08-03T05:18:36;99381.94;;;21.05;75.03
61474;BME280;53694;49.784;30.150;2022-08-03T05:19:38;99391.70;;;21.13;74.64
61474;BME280;53694;49.784;30.150;2022-08-03T05:20:40;99381.55;;;21.35;74.22
61474;BME280;53694;49.784;30.150;2022-08-03T05:21:42;99379.88;;;21.67;73.56
61474;BME280;53694;49.784;30.150;2022-08-03T05:22:44;99380.74;;;22.06;72.30
61474;BME280;53694;49.784;30.150;2022-08-03T05:23:46;99392.77;;;22.44;70.41
61474;BME280;53694;49.784;30.150;2022-08-03T05:24:48;99382.88;;;22.78;69.19
61474;BME280;53694;49.784;30.150;2022-08-03T05:25:49;99384.61;;;23.10;68.44
61474;BME280;53694;49.784;30.150;2022-08-03T05:26:52;99387.55;;;23.41;66.93
61474;BME280;53694;49.784;30.150;2022-08-03T05:27:53;99387.67;;;23.60;65.75
61474;BME280;53694;49.784;30.150;2022-08-03T05:28:55;99389.70;;;23.59;65.08
61474;BME280;53694;49.784;30.150;2022-08-03T05:29:57;99392.22;;;23.44;65.60
61474;BME280;53694;49.784;30.150;2022-08-03T05:30:59;99386.16;;;23.24;66.17
61474;BME280;53694;49.784;30.150;2022-08-03T05:32:00;99391.05;;;22.98;66.63
61474;BME280;53694;49.784;30.150;2022-08-03T05:33:02;99396.78;;;22.69;67.73
61474;BME280;53694;49.784;30.150;2022-08-03T05:34:04;99388.05;;;22.41;68.93
61474;BME280;53694;49.784;30.150;2022-08-03T05:35:06;99390.52;;;22.14;69.51
61474;BME280;53694;49.784;30.150;2022-08-03T05:36:08;99386.52;;;21.86;70.53
61474;BME280;53694;49.784;30.150;2022-08-03T05:37:10;99389.69;;;21.59;71.34
61474;BME280;53694;49.784;30.150;2022-08-03T05:38:12;99391.48;;;21.36;72.61
61474;BME280;53694;49.784;30.150;2022-08-03T05:39:14;99388.19;;;21.25;73.19
61474;BME280;53694;49.784;30.150;2022-08-03T05:40:16;99397.59;;;21.31;73.22
61474;BME280;53694;49.784;30.150;2022-08-03T05:41:19;99394.59;;;21.55;72.51
61474;BME280;53694;49.784;30.150;2022-08-03T05:42:20;99392.20;;;21.82;71.79
61474;BME280;53694;49.784;30.150;2022-08-03T05:43:22;99389.60;;;22.17;70.66